sensor_id;sensor_type;location;lat;lon;timestamp;P1;durP1;ratioP1;P2;durP2;ratioP2
21754;SDS011;11039;50.028;19.938;2023-03-14T00:01:50;6.57;;;4.93;;
21754;SDS011;11039;50.028;19.938;2023-03-14T00:04:16;8.55;;;5.47;;
21754;SDS011;11039;50.028;19.938;2023-03-14T00:06:42;6.57;;;4.85;;
21754;SDS011;11039;50.028;19.938;2023-03-14T00:09:08;6.40;;;5.07;;
21754;SDS011;11039;50.028;19.938;2023-03-14T00:11:34;7.85;;;5.45;;
21754;SDS011;11039;50.028;19.938;2023-03-14T00:14:00;7.80;;;5.13;;
21754;SDS011;11039;50.028;19.938;2023-03-14T00:16:27;6.30;;;4.97;;
21754;SDS011;11039;50.028;19.938;2023-03-14T00:18:53;8.02;;;4.72;;
21754;SDS011;11039;50.028;19.938;2023-03-14T00:21:19;6.50;;;4.55;;
21754;SDS011;11039;50.028;19.938;2023-03-14T00:23:46;6.43;;;4.70;;
21754;SDS011;11039;50.028;19.938;2023-03-14T00:26:13;7.82;;;4.88;;
21754;SDS011;11039;50.028;19.938;2023-03-14T00:28:39;5.45;;;4.10;;
21754;SDS011;11039;50.028;19.938;2023-03-14T00:31:06;5.57;;;4.60;;
21754;SDS011;11039;50.028;19.938;2023-03-14T00:33:32;6.25;;;4.70;;
21754;SDS011;11039;50.028;19.938;2023-03-14T00:36:00;5.25;;;4.20;;
21754;SDS011;11039;50.028;19.938;2023-03-14T00:38:26;6.45;;;4.65;;
21754;SDS011;11039;50.028;19.938;2023-03-14T00:40:53;5.00;;;4.10;;
21754;SDS011;11039;50.028;19.938;2023-03-14T00:43:20;5.40;;;4.25;;
21754;SDS011;11039;50.028;19.938;2023-03-14T00:45:49;6.40;;;4.53;;
21754;SDS011;11039;50.028;19.938;2023-03-14T00:48:16;5.47;;;4.20;;
21754;SDS011;11039;50.028;19.938;2023-03-14T00:50:42;5.68;;;4.03;;
21754;SDS011;11039;50.028;19.938;2023-03-14T00:53:08;5.55;;;4.40;;
21754;SDS011;11039;50.028;19.938;2023-03-14T00:55:37;5.63;;;4.15;;
21754;SDS011;11039;50.028;19.938;2023-03-14T00:58:03;5.65;;;4.15;;
21754;SDS011;11039;50.028;19.938;2023-03-14T01:00:29;5.38;;;3.83;;
21754;SDS011;11039;50.028;19.938;2023-03-14T01:02:56;5.35;;;3.60;;
21754;SDS011;11039;50.028;19.938;2023-03-14T01:05:22;5.65;;;4.20;;
21754;SDS011;11039;50.028;19.938;2023-03-14T01:07:48;4.55;;;3.65;;
21754;SDS011;11039;50.028;19.938;2023-03-14T01:10:15;5.10;;;3.75;;
21754;SDS011;11039;50.028;19.938;2023-03-14T01:12:41;5.30;;;3.85;;
21754;SDS011;11039;50.028;19.938;2023-03-14T01:15:07;4.10;;;3.50;;
21754;SDS011;11039;50.028;19.938;2023-03-14T01:17:33;4.38;;;3.60;;
21754;SDS011;11039;50.028;19.938;2023-03-14T01:19:59;4.50;;;3.60;;
21754;SDS011;11039;50.028;19.938;2023-03-14T01:22:26;5.53;;;3.70;;
21754;SDS011;11039;50.028;19.938;2023-03-14T01:24:52;5.32;;;3.85;;
21754;SDS011;11039;50.028;19.938;2023-03-14T01:27:18;4.00;;;3.22;;
21754;SDS011;11039;50.028;19.938;2023-03-14T01:29:44;4.25;;;3.58;;
21754;SDS011;11039;50.028;19.938;2023-03-14T01:32:12;4.80;;;3.75;;
21754;SDS011;11039;50.028;19.938;2023-03-14T01:34:38;4.35;;;3.30;;
21754;SDS011;11039;50.028;19.938;2023-03-14T01:37:04;4.13;;;3.42;;
21754;SDS011;11039;50.028;19.938;2023-03-14T01:39:32;4.07;;;3.25;;
21754;SDS011;11039;50.028;19.938;2023-03-14T01:41:59;4.43;;;3.55;;
21754;SDS011;11039;50.028;19.938;2023-03-14T01:44:25;4.50;;;3.20;;
21754;SDS011;11039;50.028;19.938;2023-03-14T01:46:51;4.05;;;3.00;;
21754;SDS011;11039;50.028;19.938;2023-03-14T01:49:22;3.75;;;3.05;;
21754;SDS011;11039;50.028;19.938;2023-03-14T01:56:50;3.78;;;2.95;;
21754;SDS011;11039;50.028;19.938;2023-03-14T01:59:17;4.30;;;3.28;;
21754;SDS011;11039;50.028;19.938;2023-03-14T02:01:44;3.95;;;3.08;;
21754;SDS011;11039;50.028;19.938;2023-03-14T02:04:12;3.53;;;2.58;;
21754;SDS011;11039;50.028;19.938;2023-03-14T02:06:45;4.25;;;3.28;;
21754;SDS011;11039;50.028;19.938;2023-03-14T02:09:13;3.72;;;2.70;;
21754;SDS011;11039;50.028;19.938;2023-03-14T02:11:39;5.40;;;2.97;;
21754;SDS011;11039;50.028;19.938;2023-03-14T02:14:05;3.40;;;2.63;;
21754;SDS011;11039;50.028;19.938;2023-03-14T02:16:33;3.45;;;2.55;;
21754;SDS011;11039;50.028;19.938;2023-03-14T02:18:59;3.30;;;2.80;;
21754;SDS011;11039;50.028;19.938;2023-03-14T02:21:34;3.58;;;2.70;;
21754;SDS011;11039;50.028;19.938;2023-03-14T02:26:40;3.90;;;2.80;;
21754;SDS011;11039;50.028;19.938;2023-03-14T02:29:07;4.13;;;2.75;;
21754;SDS011;11039;50.028;19.938;2023-03-14T02:31:34;2.78;;;2.40;;
21754;SDS011;11039;50.028;19.938;2023-03-14T02:34:00;3.35;;;2.63;;
21754;SDS011;11039;50.028;19.938;2023-03-14T02:36:26;3.30;;;2.30;;
21754;SDS011;11039;50.028;19.938;2023-03-14T02:38:55;3.05;;;2.40;;
21754;SDS011;11039;50.028;19.938;2023-03-14T02:41:24;2.72;;;2.22;;
21754;SDS011;11039;50.028;19.938;2023-03-14T02:43:50;3.53;;;2.53;;
21754;SDS011;11039;50.028;19.938;2023-03-14T02:46:17;3.08;;;2.20;;
21754;SDS011;11039;50.028;19.938;2023-03-14T02:48:51;2.95;;;2.50;;
21754;SDS011;11039;50.028;19.938;2023-03-14T02:51:19;2.85;;;2.40;;
21754;SDS011;11039;50.028;19.938;2023-03-14T02:53:46;3.22;;;2.50;;
21754;SDS011;11039;50.028;19.938;2023-03-14T02:56:12;2.70;;;2.17;;
21754;SDS011;11039;50.028;19.938;2023-03-14T02:58:38;2.80;;;2.40;;
21754;SDS011;11039;50.028;19.938;2023-03-14T03:01:04;3.22;;;2.47;;
21754;SDS011;11039;50.028;19.938;2023-03-14T03:03:30;2.70;;;2.05;;
21754;SDS011;11039;50.028;19.938;2023-03-14T03:05:56;3.20;;;2.22;;
21754;SDS011;11039;50.028;19.938;2023-03-14T03:08:23;2.40;;;2.20;;
21754;SDS011;11039;50.028;19.938;2023-03-14T03:10:49;3.08;;;2.38;;
21754;SDS011;11039;50.028;19.938;2023-03-14T03:13:16;2.72;;;2.25;;
21754;SDS011;11039;50.028;19.938;2023-03-14T03:15:42;3.20;;;2.35;;
21754;SDS011;11039;50.028;19.938;2023-03-14T03:18:08;2.22;;;1.80;;
21754;SDS011;11039;50.028;19.938;2023-03-14T03:20:34;2.80;;;2.28;;
21754;SDS011;11039;50.028;19.938;2023-03-14T03:23:00;2.97;;;2.28;;
21754;SDS011;11039;50.028;19.938;2023-03-14T03:25:26;3.17;;;2.05;;
21754;SDS011;11039;50.028;19.938;2023-03-14T03:27:53;2.03;;;1.83;;
21754;SDS011;11039;50.028;19.938;2023-03-14T03:30:19;3.40;;;2.47;;
21754;SDS011;11039;50.028;19.938;2023-03-14T03:32:45;2.63;;;1.77;;
21754;SDS011;11039;50.028;19.938;2023-03-14T03:35:12;3.75;;;1.88;;
21754;SDS011;11039;50.028;19.938;2023-03-14T03:37:38;2.20;;;1.83;;
21754;SDS011;11039;50.028;19.938;2023-03-14T03:40:04;2.42;;;2.05;;
21754;SDS011;11039;50.028;19.938;2023-03-14T03:42:31;2.20;;;1.85;;
21754;SDS011;11039;50.028;19.938;2023-03-14T03:44:57;2.25;;;1.80;;
21754;SDS011;11039;50.028;19.938;2023-03-14T03:47:23;2.30;;;2.00;;
21754;SDS011;11039;50.028;19.938;2023-03-14T03:49:49;3.08;;;1.80;;
21754;SDS011;11039;50.028;19.938;2023-03-14T03:52:16;2.25;;;2.00;;
21754;SDS011;11039;50.028;19.938;2023-03-14T03:54:42;2.65;;;1.80;;
21754;SDS011;11039;50.028;19.938;2023-03-14T03:57:08;2.10;;;1.88;;
21754;SDS011;11039;50.028;19.938;2023-03-14T03:59:34;2.33;;;1.77;;
21754;SDS011;11039;50.028;19.938;2023-03-14T04:02:00;2.30;;;1.60;;
21754;SDS011;11039;50.028;19.938;2023-03-14T04:04:26;1.75;;;1.65;;
21754;SDS011;11039;50.028;19.938;2023-03-14T04:06:52;3.85;;;1.75;;
21754;SDS011;11039;50.028;19.938;2023-03-14T04:09:18;1.97;;;1.77;;
21754;SDS011;11039;50.028;19.938;2023-03-14T04:11:44;2.13;;;1.80;;
21754;SDS011;11039;50.028;19.938;2023-03-14T04:14:10;2.25;;;1.92;;
21754;SDS011;11039;50.028;19.938;2023-03-14T04:16:36;2.53;;;1.73;;
21754;SDS011;11039;50.028;19.938;2023-03-14T04:19:02;2.03;;;1.75;;
21754;SDS011;11039;50.028;19.938;2023-03-14T04:21:28;2.42;;;1.77;;
21754;SDS011;11039;50.028;19.938;2023-03-14T04:23:54;2.95;;;1.40;;
21754;SDS011;11039;50.028;19.938;2023-03-14T04:26:20;1.98;;;1.48;;
21754;SDS011;11039;50.028;19.938;2023-03-14T04:28:47;1.80;;;1.58;;
21754;SDS011;11039;50.028;19.938;2023-03-14T04:31:14;1.92;;;1.60;;
21754;SDS011;11039;50.028;19.938;2023-03-14T04:33:41;2.25;;;1.67;;
21754;SDS011;11039;50.028;19.938;2023-03-14T04:36:07;2.03;;;1.50;;
21754;SDS011;11039;50.028;19.938;2023-03-14T04:38:33;1.92;;;1.50;;
21754;SDS011;11039;50.028;19.938;2023-03-14T04:40:59;2.00;;;1.58;;
21754;SDS011;11039;50.028;19.938;2023-03-14T04:43:26;1.88;;;1.50;;
21754;SDS011;11039;50.028;19.938;2023-03-14T04:45:55;1.73;;;1.42;;
21754;SDS011;11039;50.028;19.938;2023-03-14T04:48:21;2.67;;;1.70;;
21754;SDS011;11039;50.028;19.938;2023-03-14T04:50:48;1.80;;;1.50;;
21754;SDS011;11039;50.028;19.938;2023-03-14T04:53:14;1.75;;;1.40;;
21754;SDS011;11039;50.028;19.938;2023-03-14T04:55:40;2.20;;;1.60;;
21754;SDS011;11039;50.028;19.938;2023-03-14T04:58:07;1.60;;;1.40;;
21754;SDS011;11039;50.028;19.938;2023-03-14T05:00:33;1.83;;;1.30;;
21754;SDS011;11039;50.028;19.938;2023-03-14T05:02:59;1.90;;;1.40;;
21754;SDS011;11039;50.028;19.938;2023-03-14T05:05:25;2.55;;;1.50;;
21754;SDS011;11039;50.028;19.938;2023-03-14T05:07:51;1.75;;;1.60;;
21754;SDS011;11039;50.028;19.938;2023-03-14T05:10:17;1.85;;;1.50;;
21754;SDS011;11039;50.028;19.938;2023-03-14T05:12:43;2.22;;;1.60;;
21754;SDS011;11039;50.028;19.938;2023-03-14T05:15:09;2.05;;;1.60;;
21754;SDS011;11039;50.028;19.938;2023-03-14T05:17:35;2.92;;;1.50;;
21754;SDS011;11039;50.028;19.938;2023-03-14T05:20:01;2.03;;;1.50;;
21754;SDS011;11039;50.028;19.938;2023-03-14T05:22:33;2.15;;;1.40;;
21754;SDS011;11039;50.028;19.938;2023-03-14T05:24:59;1.60;;;1.50;;
21754;SDS011;11039;50.028;19.938;2023-03-14T05:27:25;1.67;;;1.50;;
21754;SDS011;11039;50.028;19.938;2023-03-14T05:29:51;2.72;;;1.70;;
21754;SDS011;11039;50.028;19.938;2023-03-14T05:32:17;3.05;;;1.58;;
21754;SDS011;11039;50.028;19.938;2023-03-14T05:34:43;4.25;;;1.60;;
21754;SDS011;11039;50.028;19.938;2023-03-14T05:37:09;1.88;;;1.58;;
21754;SDS011;11039;50.028;19.938;2023-03-14T05:39:35;2.10;;;1.50;;
21754;SDS011;11039;50.028;19.938;2023-03-14T05:42:01;2.28;;;1.75;;
21754;SDS011;11039;50.028;19.938;2023-03-14T05:44:27;1.88;;;1.45;;
21754;SDS011;11039;50.028;19.938;2023-03-14T05:46:53;2.17;;;1.70;;
21754;SDS011;11039;50.028;19.938;2023-03-14T05:49:19;2.72;;;1.50;;
21754;SDS011;11039;50.028;19.938;2023-03-14T05:51:45;2.88;;;1.60;;
21754;SDS011;11039;50.028;19.938;2023-03-14T05:54:11;1.95;;;1.52;;
21754;SDS011;11039;50.028;19.938;2023-03-14T05:56:38;2.67;;;1.55;;
21754;SDS011;11039;50.028;19.938;2023-03-14T05:59:04;2.33;;;1.65;;
21754;SDS011;11039;50.028;19.938;2023-03-14T06:01:31;3.47;;;1.67;;
21754;SDS011;11039;50.028;19.938;2023-03-14T06:03:57;2.13;;;1.50;;
21754;SDS011;11039;50.028;19.938;2023-03-14T06:06:23;1.80;;;1.27;;
21754;SDS011;11039;50.028;19.938;2023-03-14T06:08:49;2.85;;;1.75;;
21754;SDS011;11039;50.028;19.938;2023-03-14T06:11:15;2.25;;;1.55;;
21754;SDS011;11039;50.028;19.938;2023-03-14T06:13:41;2.38;;;1.50;;
21754;SDS011;11039;50.028;19.938;2023-03-14T06:16:07;2.78;;;1.85;;
21754;SDS011;11039;50.028;19.938;2023-03-14T06:18:33;2.40;;;1.70;;
21754;SDS011;11039;50.028;19.938;2023-03-14T06:20:59;3.22;;;2.08;;
21754;SDS011;11039;50.028;19.938;2023-03-14T06:23:26;3.17;;;1.60;;
21754;SDS011;11039;50.028;19.938;2023-03-14T06:25:52;1.95;;;1.50;;
21754;SDS011;11039;50.028;19.938;2023-03-14T06:28:18;3.33;;;1.65;;
21754;SDS011;11039;50.028;19.938;2023-03-14T06:30:44;4.07;;;1.73;;
21754;SDS011;11039;50.028;19.938;2023-03-14T06:33:10;4.85;;;1.67;;
21754;SDS011;11039;50.028;19.938;2023-03-14T06:35:36;2.60;;;1.45;;
21754;SDS011;11039;50.028;19.938;2023-03-14T06:38:02;2.17;;;1.70;;
21754;SDS011;11039;50.028;19.938;2023-03-14T06:40:28;6.53;;;1.80;;
21754;SDS011;11039;50.028;19.938;2023-03-14T06:42:54;2.90;;;1.73;;
21754;SDS011;11039;50.028;19.938;2023-03-14T06:45:20;2.53;;;1.55;;
21754;SDS011;11039;50.028;19.938;2023-03-14T06:47:46;2.97;;;1.77;;
21754;SDS011;11039;50.028;19.938;2023-03-14T06:50:12;2.38;;;1.60;;
21754;SDS011;11039;50.028;19.938;2023-03-14T06:52:38;3.22;;;1.80;;
21754;SDS011;11039;50.028;19.938;2023-03-14T06:55:12;2.53;;;1.90;;
21754;SDS011;11039;50.028;19.938;2023-03-14T06:57:38;2.20;;;1.67;;
21754;SDS011;11039;50.028;19.938;2023-03-14T07:00:05;3.13;;;1.77;;
21754;SDS011;11039;50.028;19.938;2023-03-14T07:02:31;2.78;;;1.77;;
21754;SDS011;11039;50.028;19.938;2023-03-14T07:04:57;2.70;;;1.80;;
21754;SDS011;11039;50.028;19.938;2023-03-14T07:07:23;5.65;;;2.47;;
21754;SDS011;11039;50.028;19.938;2023-03-14T07:09:49;2.90;;;1.95;;
21754;SDS011;11039;50.028;19.938;2023-03-14T07:12:15;2.65;;;1.60;;
21754;SDS011;11039;50.028;19.938;2023-03-14T07:14:41;5.47;;;2.10;;
21754;SDS011;11039;50.028;19.938;2023-03-14T07:17:07;5.30;;;2.00;;
21754;SDS011;11039;50.028;19.938;2023-03-14T07:19:33;4.43;;;2.17;;
21754;SDS011;11039;50.028;19.938;2023-03-14T07:21:59;3.53;;;1.90;;
21754;SDS011;11039;50.028;19.938;2023-03-14T07:24:25;7.38;;;2.55;;
21754;SDS011;11039;50.028;19.938;2023-03-14T07:26:52;5.28;;;2.30;;
21754;SDS011;11039;50.028;19.938;2023-03-14T07:29:18;3.85;;;1.83;;
21754;SDS011;11039;50.028;19.938;2023-03-14T07:31:44;4.40;;;2.30;;
21754;SDS011;11039;50.028;19.938;2023-03-14T07:34:10;4.45;;;1.95;;
21754;SDS011;11039;50.028;19.938;2023-03-14T07:36:36;3.47;;;2.10;;
21754;SDS011;11039;50.028;19.938;2023-03-14T07:39:02;3.83;;;2.53;;
21754;SDS011;11039;50.028;19.938;2023-03-14T07:41:29;3.83;;;2.00;;
21754;SDS011;11039;50.028;19.938;2023-03-14T07:43:55;3.88;;;2.03;;
21754;SDS011;11039;50.028;19.938;2023-03-14T07:46:21;5.57;;;2.35;;
21754;SDS011;11039;50.028;19.938;2023-03-14T07:48:47;4.32;;;2.08;;
21754;SDS011;11039;50.028;19.938;2023-03-14T07:51:13;5.82;;;2.45;;
21754;SDS011;11039;50.028;19.938;2023-03-14T07:53:39;8.20;;;2.45;;
21754;SDS011;11039;50.028;19.938;2023-03-14T07:56:05;6.32;;;3.03;;
21754;SDS011;11039;50.028;19.938;2023-03-14T07:58:31;5.07;;;2.47;;
21754;SDS011;11039;50.028;19.938;2023-03-14T08:00:58;6.72;;;2.65;;
21754;SDS011;11039;50.028;19.938;2023-03-14T08:03:24;4.68;;;2.47;;
21754;SDS011;11039;50.028;19.938;2023-03-14T08:05:50;6.63;;;2.65;;
21754;SDS011;11039;50.028;19.938;2023-03-14T08:08:17;4.43;;;2.33;;
21754;SDS011;11039;50.028;19.938;2023-03-14T08:10:43;5.13;;;2.33;;
21754;SDS011;11039;50.028;19.938;2023-03-14T08:13:11;5.38;;;2.45;;
21754;SDS011;11039;50.028;19.938;2023-03-14T08:15:37;5.45;;;2.72;;
21754;SDS011;11039;50.028;19.938;2023-03-14T08:18:03;6.00;;;2.67;;
21754;SDS011;11039;50.028;19.938;2023-03-14T08:20:30;5.68;;;2.25;;
21754;SDS011;11039;50.028;19.938;2023-03-14T08:22:56;4.57;;;2.17;;
21754;SDS011;11039;50.028;19.938;2023-03-14T08:25:23;5.15;;;2.50;;
21754;SDS011;11039;50.028;19.938;2023-03-14T08:27:49;5.53;;;2.45;;
21754;SDS011;11039;50.028;19.938;2023-03-14T08:30:16;5.72;;;2.50;;
21754;SDS011;11039;50.028;19.938;2023-03-14T08:32:42;4.78;;;2.30;;
21754;SDS011;11039;50.028;19.938;2023-03-14T08:35:09;4.13;;;2.50;;
21754;SDS011;11039;50.028;19.938;2023-03-14T08:37:35;3.53;;;2.78;;
21754;SDS011;11039;50.028;19.938;2023-03-14T08:40:02;4.25;;;2.45;;
21754;SDS011;11039;50.028;19.938;2023-03-14T08:42:32;4.90;;;2.70;;
21754;SDS011;11039;50.028;19.938;2023-03-14T08:44:58;4.35;;;2.78;;
21754;SDS011;11039;50.028;19.938;2023-03-14T08:47:24;5.82;;;2.50;;
21754;SDS011;11039;50.028;19.938;2023-03-14T08:49:50;3.92;;;2.42;;
21754;SDS011;11039;50.028;19.938;2023-03-14T08:52:16;4.95;;;2.55;;
21754;SDS011;11039;50.028;19.938;2023-03-14T08:54:43;4.68;;;2.63;;
21754;SDS011;11039;50.028;19.938;2023-03-14T08:57:09;5.18;;;2.83;;
21754;SDS011;11039;50.028;19.938;2023-03-14T08:59:35;3.35;;;2.20;;
21754;SDS011;11039;50.028;19.938;2023-03-14T09:02:02;4.68;;;2.75;;
21754;SDS011;11039;50.028;19.938;2023-03-14T09:04:31;4.65;;;2.35;;
21754;SDS011;11039;50.028;19.938;2023-03-14T09:06:58;4.07;;;2.45;;
21754;SDS011;11039;50.028;19.938;2023-03-14T09:09:24;3.05;;;2.35;;
21754;SDS011;11039;50.028;19.938;2023-03-14T09:11:54;6.03;;;2.83;;
21754;SDS011;11039;50.028;19.938;2023-03-14T09:14:21;3.03;;;2.30;;
21754;SDS011;11039;50.028;19.938;2023-03-14T09:16:47;3.50;;;2.10;;
21754;SDS011;11039;50.028;19.938;2023-03-14T09:19:13;5.38;;;2.28;;
21754;SDS011;11039;50.028;19.938;2023-03-14T09:21:39;3.10;;;2.10;;
21754;SDS011;11039;50.028;19.938;2023-03-14T09:24:05;3.05;;;2.30;;
21754;SDS011;11039;50.028;19.938;2023-03-14T09:26:31;5.68;;;2.60;;
21754;SDS011;11039;50.028;19.938;2023-03-14T09:28:57;4.40;;;2.67;;
21754;SDS011;11039;50.028;19.938;2023-03-14T09:31:24;3.33;;;2.38;;
21754;SDS011;11039;50.028;19.938;2023-03-14T09:33:50;5.20;;;2.28;;
21754;SDS011;11039;50.028;19.938;2023-03-14T09:36:16;3.38;;;2.42;;
21754;SDS011;11039;50.028;19.938;2023-03-14T09:38:42;4.72;;;2.40;;
21754;SDS011;11039;50.028;19.938;2023-03-14T09:41:18;3.05;;;1.95;;
21754;SDS011;11039;50.028;19.938;2023-03-14T09:43:46;4.05;;;2.15;;
21754;SDS011;11039;50.028;19.938;2023-03-14T09:46:16;3.80;;;2.50;;
21754;SDS011;11039;50.028;19.938;2023-03-14T09:48:42;2.80;;;2.00;;
21754;SDS011;11039;50.028;19.938;2023-03-14T09:51:15;3.45;;;2.38;;
21754;SDS011;11039;50.028;19.938;2023-03-14T09:53:45;3.83;;;2.28;;
21754;SDS011;11039;50.028;19.938;2023-03-14T09:56:13;5.47;;;2.67;;
21754;SDS011;11039;50.028;19.938;2023-03-14T09:58:42;4.20;;;2.88;;
21754;SDS011;11039;50.028;19.938;2023-03-14T10:01:11;2.90;;;2.40;;
21754;SDS011;11039;50.028;19.938;2023-03-14T10:03:39;2.63;;;2.08;;
21754;SDS011;11039;50.028;19.938;2023-03-14T10:06:10;3.20;;;2.40;;
21754;SDS011;11039;50.028;19.938;2023-03-14T10:08:43;3.45;;;2.50;;
21754;SDS011;11039;50.028;19.938;2023-03-14T10:11:16;2.70;;;2.03;;
21754;SDS011;11039;50.028;19.938;2023-03-14T10:13:52;3.90;;;2.28;;
21754;SDS011;11039;50.028;19.938;2023-03-14T10:16:28;3.53;;;2.28;;
21754;SDS011;11039;50.028;19.938;2023-03-14T10:18:59;3.80;;;2.10;;
21754;SDS011;11039;50.028;19.938;2023-03-14T10:21:27;2.92;;;2.10;;
21754;SDS011;11039;50.028;19.938;2023-03-14T10:23:54;3.35;;;2.10;;
21754;SDS011;11039;50.028;19.938;2023-03-14T10:26:23;5.25;;;2.13;;
21754;SDS011;11039;50.028;19.938;2023-03-14T10:28:54;2.97;;;2.22;;
21754;SDS011;11039;50.028;19.938;2023-03-14T10:31:26;3.42;;;1.85;;
21754;SDS011;11039;50.028;19.938;2023-03-14T10:34:02;3.33;;;2.40;;
21754;SDS011;11039;50.028;19.938;2023-03-14T10:36:29;4.00;;;1.98;;
21754;SDS011;11039;50.028;19.938;2023-03-14T10:38:57;4.93;;;2.30;;
21754;SDS011;11039;50.028;19.938;2023-03-14T10:41:30;3.47;;;2.20;;
21754;SDS011;11039;50.028;19.938;2023-03-14T10:43:57;3.90;;;2.35;;
21754;SDS011;11039;50.028;19.938;2023-03-14T10:46:25;4.05;;;2.17;;
21754;SDS011;11039;50.028;19.938;2023-03-14T10:48:51;4.80;;;2.50;;
21754;SDS011;11039;50.028;19.938;2023-03-14T10:53:44;4.00;;;2.10;;
21754;SDS011;11039;50.028;19.938;2023-03-14T10:56:14;3.40;;;2.08;;
21754;SDS011;11039;50.028;19.938;2023-03-14T10:58:42;4.25;;;2.60;;
21754;SDS011;11039;50.028;19.938;2023-03-14T11:03:57;4.30;;;2.28;;
21754;SDS011;11039;50.028;19.938;2023-03-14T11:08:57;3.88;;;2.08;;
21754;SDS011;11039;50.028;19.938;2023-03-14T11:11:30;4.38;;;2.00;;
21754;SDS011;11039;50.028;19.938;2023-03-14T11:16:25;3.42;;;2.22;;
21754;SDS011;11039;50.028;19.938;2023-03-14T11:27:00;3.70;;;2.22;;
21754;SDS011;11039;50.028;19.938;2023-03-14T11:29:40;4.25;;;2.15;;
21754;SDS011;11039;50.028;19.938;2023-03-14T11:32:32;4.35;;;1.75;;
21754;SDS011;11039;50.028;19.938;2023-03-14T11:35:03;3.95;;;2.00;;
21754;SDS011;11039;50.028;19.938;2023-03-14T11:37:34;4.20;;;1.95;;
21754;SDS011;11039;50.028;19.938;2023-03-14T11:42:28;3.47;;;1.80;;
21754;SDS011;11039;50.028;19.938;2023-03-14T11:44:54;2.28;;;1.77;;
21754;SDS011;11039;50.028;19.938;2023-03-14T11:47:23;3.55;;;2.00;;
21754;SDS011;11039;50.028;19.938;2023-03-14T11:49:58;3.20;;;2.10;;
21754;SDS011;11039;50.028;19.938;2023-03-14T11:55:19;2.42;;;1.92;;
21754;SDS011;11039;50.028;19.938;2023-03-14T11:57:46;2.50;;;2.20;;
21754;SDS011;11039;50.028;19.938;2023-03-14T12:00:16;3.05;;;2.00;;
21754;SDS011;11039;50.028;19.938;2023-03-14T12:02:47;4.28;;;2.40;;
21754;SDS011;11039;50.028;19.938;2023-03-14T12:07:51;3.20;;;2.20;;
21754;SDS011;11039;50.028;19.938;2023-03-14T12:10:29;3.38;;;2.20;;
21754;SDS011;11039;50.028;19.938;2023-03-14T12:12:55;4.57;;;2.05;;
21754;SDS011;11039;50.028;19.938;2023-03-14T12:15:21;3.88;;;2.28;;
21754;SDS011;11039;50.028;19.938;2023-03-14T12:17:53;4.03;;;2.20;;
21754;SDS011;11039;50.028;19.938;2023-03-14T12:20:20;3.70;;;2.10;;
21754;SDS011;11039;50.028;19.938;2023-03-14T12:22:47;3.97;;;2.03;;
21754;SDS011;11039;50.028;19.938;2023-03-14T12:25:19;6.93;;;2.10;;
21754;SDS011;11039;50.028;19.938;2023-03-14T12:27:47;3.65;;;1.88;;
21754;SDS011;11039;50.028;19.938;2023-03-14T12:35:43;2.45;;;1.90;;
21754;SDS011;11039;50.028;19.938;2023-03-14T12:38:14;3.58;;;2.20;;
21754;SDS011;11039;50.028;19.938;2023-03-14T12:40:47;4.38;;;2.17;;
21754;SDS011;11039;50.028;19.938;2023-03-14T12:43:29;6.53;;;1.98;;
21754;SDS011;11039;50.028;19.938;2023-03-14T12:48:40;2.72;;;1.75;;
21754;SDS011;11039;50.028;19.938;2023-03-14T12:51:13;2.58;;;1.95;;
21754;SDS011;11039;50.028;19.938;2023-03-14T12:59:06;4.55;;;3.63;;
21754;SDS011;11039;50.028;19.938;2023-03-14T13:01:36;6.35;;;3.58;;
21754;SDS011;11039;50.028;19.938;2023-03-14T13:04:10;5.53;;;3.78;;
21754;SDS011;11039;50.028;19.938;2023-03-14T13:11:54;6.88;;;3.38;;
21754;SDS011;11039;50.028;19.938;2023-03-14T13:14:21;4.43;;;3.10;;
21754;SDS011;11039;50.028;19.938;2023-03-14T13:16:48;6.28;;;3.30;;
21754;SDS011;11039;50.028;19.938;2023-03-14T13:19:29;5.70;;;3.20;;
21754;SDS011;11039;50.028;19.938;2023-03-14T13:22:04;4.57;;;3.00;;
21754;SDS011;11039;50.028;19.938;2023-03-14T13:24:32;4.32;;;3.00;;
21754;SDS011;11039;50.028;19.938;2023-03-14T13:26:58;6.22;;;3.13;;
21754;SDS011;11039;50.028;19.938;2023-03-14T13:29:25;3.67;;;2.53;;
21754;SDS011;11039;50.028;19.938;2023-03-14T13:31:53;4.40;;;2.50;;
21754;SDS011;11039;50.028;19.938;2023-03-14T13:34:24;4.03;;;2.60;;
21754;SDS011;11039;50.028;19.938;2023-03-14T13:36:51;4.80;;;2.33;;
21754;SDS011;11039;50.028;19.938;2023-03-14T13:39:18;4.07;;;2.60;;
21754;SDS011;11039;50.028;19.938;2023-03-14T13:41:45;4.20;;;2.42;;
21754;SDS011;11039;50.028;19.938;2023-03-14T13:44:33;5.13;;;2.40;;
21754;SDS011;11039;50.028;19.938;2023-03-14T13:47:01;3.58;;;2.45;;
21754;SDS011;11039;50.028;19.938;2023-03-14T13:49:28;5.35;;;2.10;;
21754;SDS011;11039;50.028;19.938;2023-03-14T13:51:57;3.35;;;2.33;;
21754;SDS011;11039;50.028;19.938;2023-03-14T13:54:25;3.67;;;2.30;;
21754;SDS011;11039;50.028;19.938;2023-03-14T13:57:01;3.85;;;2.47;;
21754;SDS011;11039;50.028;19.938;2023-03-14T13:59:28;3.25;;;2.30;;
21754;SDS011;11039;50.028;19.938;2023-03-14T14:01:55;2.90;;;2.03;;
21754;SDS011;11039;50.028;19.938;2023-03-14T14:04:23;2.42;;;1.95;;
21754;SDS011;11039;50.028;19.938;2023-03-14T14:06:52;3.13;;;2.17;;
21754;SDS011;11039;50.028;19.938;2023-03-14T14:09:19;3.88;;;2.35;;
21754;SDS011;11039;50.028;19.938;2023-03-14T14:12:03;3.90;;;2.30;;
21754;SDS011;11039;50.028;19.938;2023-03-14T14:16:56;4.10;;;2.22;;
21754;SDS011;11039;50.028;19.938;2023-03-14T14:19:23;3.55;;;2.28;;
21754;SDS011;11039;50.028;19.938;2023-03-14T14:21:51;4.88;;;2.20;;
21754;SDS011;11039;50.028;19.938;2023-03-14T14:24:17;3.80;;;2.45;;
21754;SDS011;11039;50.028;19.938;2023-03-14T14:26:47;5.18;;;2.33;;
21754;SDS011;11039;50.028;19.938;2023-03-14T14:29:20;4.13;;;2.30;;
21754;SDS011;11039;50.028;19.938;2023-03-14T14:31:58;4.32;;;2.20;;
21754;SDS011;11039;50.028;19.938;2023-03-14T14:34:25;3.60;;;2.30;;
21754;SDS011;11039;50.028;19.938;2023-03-14T14:36:52;4.53;;;2.30;;
21754;SDS011;11039;50.028;19.938;2023-03-14T14:41:48;4.03;;;2.55;;
21754;SDS011;11039;50.028;19.938;2023-03-14T14:44:17;3.15;;;2.17;;
21754;SDS011;11039;50.028;19.938;2023-03-14T14:46:44;4.20;;;2.33;;
21754;SDS011;11039;50.028;19.938;2023-03-14T14:49:11;4.05;;;2.20;;
21754;SDS011;11039;50.028;19.938;2023-03-14T14:51:39;3.83;;;2.28;;
21754;SDS011;11039;50.028;19.938;2023-03-14T14:54:11;4.40;;;2.10;;
21754;SDS011;11039;50.028;19.938;2023-03-14T14:56:38;4.03;;;2.38;;
21754;SDS011;11039;50.028;19.938;2023-03-14T14:59:04;4.57;;;2.17;;
21754;SDS011;11039;50.028;19.938;2023-03-14T15:01:36;3.75;;;2.05;;
21754;SDS011;11039;50.028;19.938;2023-03-14T15:04:04;3.17;;;2.30;;
21754;SDS011;11039;50.028;19.938;2023-03-14T15:06:35;4.28;;;2.28;;
21754;SDS011;11039;50.028;19.938;2023-03-14T15:09:02;4.60;;;2.28;;
21754;SDS011;11039;50.028;19.938;2023-03-14T15:11:28;3.83;;;2.22;;
21754;SDS011;11039;50.028;19.938;2023-03-14T15:13:54;4.53;;;2.33;;
21754;SDS011;11039;50.028;19.938;2023-03-14T15:16:21;4.43;;;2.45;;
21754;SDS011;11039;50.028;19.938;2023-03-14T15:18:54;3.60;;;2.05;;
21754;SDS011;11039;50.028;19.938;2023-03-14T15:21:21;3.42;;;2.10;;
21754;SDS011;11039;50.028;19.938;2023-03-14T15:23:47;4.28;;;2.35;;
21754;SDS011;11039;50.028;19.938;2023-03-14T15:26:14;2.33;;;1.83;;
21754;SDS011;11039;50.028;19.938;2023-03-14T15:28:40;3.28;;;2.13;;
21754;SDS011;11039;50.028;19.938;2023-03-14T15:31:10;4.65;;;2.40;;
21754;SDS011;11039;50.028;19.938;2023-03-14T15:33:36;3.47;;;2.40;;